createdAt,value
2023-02-11T00:01:42.555Z,19.00
2023-02-11T00:03:44.468Z,21.00
2023-02-11T00:05:46.014Z,22.33
2023-02-11T00:07:47.590Z,19.00
2023-02-11T00:09:50.669Z,19.67
2023-02-11T00:11:52.177Z,21.67
2023-02-11T00:13:54.032Z,21.00
2023-02-11T00:15:55.832Z,19.00
2023-02-11T00:17:57.416Z,19.00
2023-02-11T00:19:59.036Z,17.67
2023-02-11T00:22:00.586Z,20.67
2023-02-11T00:24:02.432Z,19.67
2023-02-11T00:26:12.278Z,21.00
2023-02-11T00:28:14.013Z,14.00
2023-02-11T00:30:15.863Z,19.67
2023-02-11T00:32:17.465Z,18.33
2023-02-11T00:34:18.999Z,16.00
2023-02-11T00:36:23.651Z,17.00
2023-02-11T00:38:25.227Z,18.67
2023-02-11T00:40:26.778Z,20.00
2023-02-11T00:42:29.903Z,16.67
2023-02-11T00:44:31.462Z,20.33
2023-02-11T00:46:33.151Z,19.00
2023-02-11T00:48:35.129Z,21.00
2023-02-11T00:50:36.748Z,18.00
2023-02-11T00:52:38.634Z,14.33
2023-02-11T00:54:40.185Z,20.33
2023-02-11T00:56:41.871Z,19.67
2023-02-11T00:58:44.941Z,20.67
2023-02-11T01:00:46.592Z,12.67
2023-02-11T01:02:48.468Z,20.33
2023-02-11T01:04:50.421Z,19.00
2023-02-11T01:06:52.854Z,11.33
2023-02-11T01:08:54.721Z,16.33
2023-02-11T01:10:59.065Z,16.67
2023-02-11T01:13:00.720Z,20.00
2023-02-11T01:15:05.521Z,20.00
2023-02-11T01:17:07.422Z,17.33
2023-02-11T01:19:09.694Z,20.00
2023-02-11T01:21:12.096Z,19.00
2023-02-11T01:23:14.227Z,15.00
2023-02-11T01:25:16.248Z,18.67
2023-02-11T01:27:17.803Z,17.00
2023-02-11T01:29:20.084Z,20.33
2023-02-11T01:31:23.282Z,18.00
2023-02-11T01:33:25.132Z,19.67
2023-02-11T01:35:26.908Z,14.67
2023-02-11T01:37:30.532Z,18.67
2023-02-11T01:39:34.041Z,15.00
2023-02-11T01:41:35.872Z,9.67
2023-02-11T01:43:40.436Z,20.33
2023-02-11T01:46:05.161Z,18.67
2023-02-11T01:48:09.729Z,19.00
2023-02-11T01:50:11.715Z,22.33
2023-02-11T01:52:18.650Z,19.00
2023-02-11T01:54:25.050Z,19.00
2023-02-11T01:56:30.078Z,19.33
2023-02-11T01:58:33.655Z,21.00
2023-02-11T02:00:38.926Z,20.33
2023-02-11T02:02:49.267Z,15.67
2023-02-11T02:04:55.275Z,22.67
2023-02-11T02:07:03.609Z,16.67
2023-02-11T02:09:09.690Z,20.00
2023-02-11T02:11:11.951Z,20.00
2023-02-11T02:13:14.808Z,16.00
2023-02-11T02:15:23.926Z,24.00
2023-02-11T02:17:38.612Z,21.00
2023-02-11T02:20:10.216Z,17.67
2023-02-11T02:22:49.493Z,20.00
2023-02-11T02:25:00.339Z,15.67
2023-02-11T02:27:26.067Z,18.33
2023-02-11T02:29:50.069Z,19.33
2023-02-11T02:32:22.403Z,10.33
2023-02-11T02:34:32.858Z,20.33
2023-02-11T02:36:41.289Z,23.00
2023-02-11T02:38:51.177Z,15.00
2023-02-11T02:41:06.437Z,18.00
2023-02-11T02:43:10.796Z,15.00
2023-02-11T02:45:14.188Z,22.00
2023-02-11T02:47:17.192Z,19.33
2023-02-11T02:49:19.100Z,20.00
2023-02-11T02:51:33.200Z,19.00
2023-02-11T02:53:50.158Z,20.00
2023-02-11T02:56:02.485Z,19.67
2023-02-11T02:58:39.619Z,18.33
2023-02-11T03:00:49.935Z,18.67
2023-02-11T03:03:06.982Z,15.00
2023-02-11T03:05:16.475Z,21.00
2023-02-11T03:07:25.597Z,14.00
2023-02-11T03:09:33.003Z,17.33
2023-02-11T03:11:37.434Z,14.33
2023-02-11T03:13:41.064Z,17.33
2023-02-11T03:15:46.044Z,19.67
2023-02-11T03:17:49.928Z,18.67
2023-02-11T03:19:53.885Z,16.67
2023-02-11T03:21:56.739Z,16.00
2023-02-11T03:24:05.767Z,15.00
2023-02-11T03:26:17.220Z,12.00
2023-02-11T03:28:29.711Z,15.33
2023-02-11T03:30:38.765Z,3.00
2023-02-11T03:32:45.625Z,16.00
2023-02-11T03:34:54.236Z,14.67
2023-02-11T03:37:03.589Z,12.33
2023-02-11T03:39:06.775Z,6.00
2023-02-11T03:41:10.641Z,15.00
2023-02-11T03:43:17.553Z,13.00
2023-02-11T03:45:23.685Z,11.00
2023-02-11T03:47:27.977Z,11.00
2023-02-11T03:49:32.269Z,13.33
2023-02-11T03:51:35.974Z,13.33
2023-02-11T03:53:43.592Z,12.00
2023-02-11T03:55:48.062Z,14.33
2023-02-11T03:57:49.949Z,12.00
2023-02-11T03:59:54.302Z,11.33
2023-02-11T04:01:56.221Z,12.67
2023-02-11T04:03:57.860Z,11.00
2023-02-11T04:05:59.688Z,12.67
2023-02-11T04:08:01.456Z,11.67
2023-02-11T04:10:05.492Z,8.00
2023-02-11T04:12:08.107Z,11.33
2023-02-11T04:14:09.794Z,13.67
2023-02-11T04:16:11.329Z,8.00
2023-02-11T04:18:12.840Z,12.00
2023-02-11T04:20:14.563Z,10.33
2023-02-11T04:22:16.191Z,8.00
2023-02-11T04:24:18.065Z,8.00
2023-02-11T04:26:21.185Z,12.00
2023-02-11T04:28:22.892Z,15.00
2023-02-11T04:30:24.741Z,12.00
2023-02-11T04:32:26.319Z,11.33
2023-02-11T04:34:27.971Z,4.67
2023-02-11T04:36:29.605Z,15.00
2023-02-11T04:38:31.229Z,12.00
2023-02-11T04:40:32.882Z,12.00
2023-02-11T04:42:35.882Z,12.00
2023-02-11T04:44:37.609Z,14.67
2023-02-11T04:46:39.258Z,13.67
2023-02-11T04:48:40.859Z,12.67
2023-02-11T04:50:43.308Z,14.33
2023-02-11T04:52:44.824Z,9.67
2023-02-11T04:54:46.600Z,13.00
2023-02-11T04:56:49.272Z,11.00
2023-02-11T04:58:52.496Z,15.33
2023-02-11T05:00:54.338Z,12.67
2023-02-11T05:02:55.861Z,15.33
2023-02-11T05:04:57.683Z,14.67
2023-02-11T05:06:59.254Z,12.67
2023-02-11T05:09:00.822Z,11.67
2023-02-11T05:11:02.657Z,11.00
2023-02-11T05:13:04.315Z,12.00
2023-02-11T05:15:07.986Z,13.00
2023-02-11T05:17:09.903Z,10.00
2023-02-11T05:19:11.499Z,13.00
2023-02-11T05:21:15.631Z,12.00
2023-02-11T05:23:17.301Z,12.00
2023-02-11T05:25:19.335Z,8.67
2023-02-11T05:27:21.294Z,13.67
2023-02-11T05:29:22.944Z,12.67
2023-02-11T05:31:25.845Z,12.67
2023-02-11T05:33:27.698Z,11.00
2023-02-11T05:35:29.318Z,12.00
2023-02-11T05:37:31.218Z,13.00
2023-02-11T05:39:32.826Z,12.00
2023-02-11T05:41:34.534Z,13.33
2023-02-11T05:43:36.105Z,14.33
2023-02-11T05:45:37.721Z,17.00
2023-02-11T05:47:40.701Z,12.67
2023-02-11T05:49:42.245Z,10.67
2023-02-11T05:51:44.060Z,12.33
2023-02-11T05:53:45.914Z,17.00
2023-02-11T05:55:47.517Z,3.00
2023-02-11T05:57:49.067Z,13.67
2023-02-11T05:59:50.681Z,16.00
2023-02-11T06:01:52.601Z,14.33
2023-02-11T06:03:55.658Z,16.33
2023-02-11T06:05:57.536Z,12.67
2023-02-11T06:07:59.411Z,10.67
2023-02-11T06:10:01.410Z,7.67
2023-02-11T06:12:03.131Z,11.67
2023-02-11T06:14:08.566Z,13.67
2023-02-11T06:16:10.176Z,13.67
2023-02-11T06:18:11.858Z,12.33
2023-02-11T06:20:15.160Z,12.00
2023-02-11T06:22:17.748Z,13.00
2023-02-11T06:26:30.989Z,15.00
2023-02-11T06:28:33.230Z,14.00
2023-02-11T06:30:36.836Z,13.00
2023-02-11T06:32:44.568Z,13.00
2023-02-11T06:34:47.100Z,11.67
2023-02-11T06:36:48.859Z,13.00
2023-02-11T06:38:50.526Z,16.00
2023-02-11T06:40:52.085Z,13.00
2023-02-11T06:42:55.082Z,14.33
2023-02-11T06:44:56.901Z,11.00
2023-02-11T06:46:58.720Z,12.00
2023-02-11T06:49:00.597Z,13.67
2023-02-11T06:51:03.705Z,11.00
2023-02-11T06:53:05.346Z,11.00
2023-02-11T06:55:07.399Z,12.00
2023-02-11T06:57:09.425Z,12.00
2023-02-11T06:59:15.909Z,11.00
2023-02-11T07:01:17.580Z,11.67
2023-02-11T07:03:19.482Z,9.00
2023-02-11T07:05:21.314Z,12.00
2023-02-11T07:07:23.011Z,11.00
2023-02-11T07:09:24.879Z,8.33
2023-02-11T07:11:29.230Z,11.00
2023-02-11T07:13:31.344Z,7.67
2023-02-11T07:15:34.565Z,9.00
2023-02-11T07:17:36.228Z,11.00
2023-02-11T07:19:38.093Z,6.33
2023-02-11T07:21:39.887Z,11.00
2023-02-11T07:23:42.087Z,12.00
2023-02-11T07:25:43.742Z,9.00
2023-02-11T07:27:45.617Z,9.67
2023-02-11T07:29:47.225Z,11.00
2023-02-11T07:31:50.480Z,10.33
2023-02-11T07:33:53.942Z,11.33
2023-02-11T07:35:55.523Z,8.00
2023-02-11T07:37:57.081Z,10.33
2023-02-11T07:39:58.806Z,9.00
2023-02-11T07:42:00.441Z,8.67
2023-02-11T07:44:02.674Z,9.00
2023-02-11T07:46:05.168Z,11.67
2023-02-11T07:48:08.729Z,9.00
2023-02-11T07:50:10.728Z,8.00
2023-02-11T07:52:12.338Z,8.00
2023-02-11T07:54:13.903Z,7.25
2023-02-11T07:56:16.905Z,8.33
2023-02-11T07:58:18.467Z,7.33
2023-02-11T08:00:21.322Z,8.75
2023-02-11T08:02:22.993Z,7.00
2023-02-11T08:04:26.014Z,7.00
2023-02-11T08:06:30.037Z,8.25
2023-02-11T08:08:31.728Z,9.50
2023-02-11T08:10:33.331Z,11.75
2023-02-11T08:12:34.862Z,9.75
2023-02-11T08:14:36.896Z,0.00
2023-02-11T08:16:38.762Z,7.00
2023-02-11T08:18:40.442Z,7.00
2023-02-11T08:20:43.376Z,10.00
2023-02-11T08:22:45.206Z,6.50
2023-02-11T08:24:46.995Z,6.25
2023-02-11T08:26:49.259Z,7.25
2023-02-11T08:28:52.716Z,4.00
2023-02-11T08:30:54.343Z,8.00
2023-02-11T08:32:56.048Z,7.50
2023-02-11T08:34:57.576Z,7.00
2023-02-11T08:37:00.792Z,6.75
2023-02-11T08:39:18.179Z,7.25
2023-02-11T08:41:21.050Z,4.50
2023-02-11T08:43:22.670Z,4.00
2023-02-11T08:45:24.454Z,4.75
2023-02-11T08:47:26.105Z,6.75
2023-02-11T08:49:27.831Z,5.00
2023-02-11T08:51:30.662Z,6.75
2023-02-11T08:53:33.690Z,4.00
2023-02-11T08:55:35.524Z,4.00
2023-02-11T08:57:37.124Z,3.00
2023-02-11T08:59:39.530Z,4.00
2023-02-11T09:01:41.459Z,5.50
2023-02-11T09:03:43.229Z,4.00
2023-02-11T09:05:47.552Z,2.00
2023-02-11T09:07:49.133Z,3.00
2023-02-11T09:09:52.046Z,3.50
2023-02-11T09:11:53.596Z,3.25
2023-02-11T09:13:55.190Z,3.75
2023-02-11T09:15:57.529Z,2.00
2023-02-11T09:17:59.532Z,3.75
2023-02-11T09:20:01.260Z,2.75
2023-02-11T09:22:03.266Z,4.00
2023-02-11T09:24:05.405Z,2.33
2023-02-11T09:26:09.911Z,4.00
2023-02-11T09:28:11.491Z,3.00
2023-02-11T09:30:13.552Z,2.00
2023-02-11T09:32:15.347Z,0.00
2023-02-11T09:34:16.952Z,2.25
2023-02-11T09:36:20.536Z,2.25
2023-02-11T09:38:22.081Z,3.00
2023-02-11T09:40:23.712Z,1.25
2023-02-11T09:42:40.210Z,2.00
2023-02-11T09:44:45.156Z,4.00
2023-02-11T09:46:53.861Z,2.75
2023-02-11T09:48:56.431Z,2.00
2023-02-11T09:51:01.493Z,2.00
2023-02-11T09:53:06.561Z,4.50
2023-02-11T09:55:18.442Z,2.75
2023-02-11T09:57:28.584Z,1.00
2023-02-11T09:59:32.127Z,1.00
2023-02-11T10:01:41.873Z,1.00
2023-02-11T10:03:59.927Z,0.00
2023-02-11T10:06:15.821Z,0.00
2023-02-11T10:08:22.783Z,1.00
2023-02-11T10:10:39.557Z,1.00
2023-02-11T10:12:58.235Z,1.00
2023-02-11T10:15:18.907Z,2.00
2023-02-11T10:17:32.462Z,1.00
2023-02-11T10:19:48.647Z,1.00
2023-02-11T10:22:02.262Z,1.00
2023-02-11T10:24:12.688Z,1.00
2023-02-11T10:26:17.232Z,0.25
2023-02-11T10:28:21.771Z,1.00
2023-02-11T10:30:32.341Z,1.00
2023-02-11T10:32:42.978Z,0.25
2023-02-11T10:34:44.908Z,0.00
2023-02-11T10:36:46.770Z,0.25
2023-02-11T10:38:48.303Z,0.50
2023-02-11T10:40:50.175Z,1.50
2023-02-11T10:42:55.699Z,1.00
2023-02-11T10:45:01.108Z,0.25
2023-02-11T10:47:10.885Z,0.00
2023-02-11T10:49:37.689Z,0.00
2023-02-11T10:51:39.348Z,0.50
2023-02-11T10:53:41.696Z,0.00
2023-02-11T10:55:51.736Z,0.00
2023-02-11T10:57:57.954Z,0.00
2023-02-11T11:00:04.844Z,1.00
2023-02-11T11:02:23.658Z,1.00
2023-02-11T11:04:35.508Z,1.00
2023-02-11T11:06:37.284Z,0.75
2023-02-11T11:08:44.048Z,0.50
2023-02-11T11:10:47.361Z,0.25
2023-02-11T11:12:49.431Z,1.00
2023-02-11T11:14:55.466Z,0.00
2023-02-11T11:16:57.402Z,1.25
2023-02-11T11:19:21.917Z,0.75
2023-02-11T11:21:25.897Z,0.00
2023-02-11T11:23:29.324Z,0.00
2023-02-11T11:25:30.861Z,0.00
2023-02-11T11:27:33.420Z,0.00
2023-02-11T11:29:37.291Z,0.00
2023-02-11T11:31:50.384Z,0.25
2023-02-11T11:33:55.839Z,1.00
2023-02-11T11:36:02.717Z,0.00
2023-02-11T11:38:05.674Z,0.00
2023-02-11T11:40:10.575Z,0.25
2023-02-11T11:42:26.922Z,0.00
2023-02-11T11:44:32.053Z,1.00
2023-02-11T11:46:40.052Z,0.00
2023-02-11T11:48:46.823Z,1.00
2023-02-11T11:50:53.454Z,0.75
2023-02-11T11:53:04.369Z,0.00
2023-02-11T11:55:15.830Z,1.00
2023-02-11T11:57:23.168Z,0.00
2023-02-11T11:59:25.096Z,1.00
2023-02-11T12:01:35.285Z,0.00
2023-02-11T12:04:16.238Z,1.00
2023-02-11T12:06:30.904Z,0.00
2023-02-11T12:08:44.633Z,0.00
2023-02-11T12:11:03.590Z,0.25
2023-02-11T12:13:20.751Z,0.75
2023-02-11T12:15:35.119Z,1.00
2023-02-11T12:17:52.564Z,0.00
2023-02-11T12:20:17.071Z,0.00
2023-02-11T12:22:33.092Z,2.50
2023-02-11T12:24:56.507Z,0.00
2023-02-11T12:27:05.868Z,0.00
2023-02-11T12:29:17.190Z,1.00
2023-02-11T12:31:29.872Z,1.00
2023-02-11T12:33:51.976Z,0.75
2023-02-11T12:35:59.296Z,0.00
2023-02-11T12:38:39.074Z,0.00
2023-02-11T12:40:45.548Z,0.50
2023-02-11T12:43:09.577Z,0.75
2023-02-11T12:45:24.697Z,1.00
2023-02-11T12:47:37.767Z,0.00
2023-02-11T12:49:53.546Z,0.00
2023-02-11T12:52:11.571Z,1.00
2023-02-11T12:54:24.264Z,0.00
2023-02-11T12:56:39.095Z,0.00
2023-02-11T12:58:45.369Z,0.00
2023-02-11T13:00:51.323Z,0.00
2023-02-11T13:02:59.829Z,0.00
2023-02-11T13:05:08.269Z,1.00
2023-02-11T13:07:16.362Z,2.00
2023-02-11T13:09:25.321Z,2.00
2023-02-11T13:11:34.110Z,2.00
2023-02-11T13:13:46.503Z,1.00
2023-02-11T13:15:53.766Z,0.00
2023-02-11T13:18:02.537Z,0.00
2023-02-11T13:20:18.552Z,0.00
2023-02-11T13:22:27.669Z,1.00
2023-02-11T13:24:37.254Z,1.00
2023-02-11T13:26:47.288Z,0.00
2023-02-11T13:28:54.457Z,0.00
2023-02-11T13:30:57.081Z,0.00
2023-02-11T13:33:19.834Z,0.00
2023-02-11T13:35:29.146Z,0.00
2023-02-11T13:37:37.187Z,0.00
2023-02-11T13:39:39.074Z,1.00
2023-02-11T13:41:42.391Z,1.00
2023-02-11T13:43:45.142Z,0.00
2023-02-11T13:45:48.699Z,0.00
2023-02-11T13:47:56.845Z,0.00
2023-02-11T13:50:00.745Z,0.00
2023-02-11T13:52:06.553Z,0.50
2023-02-11T13:54:20.060Z,2.00
2023-02-11T13:56:29.837Z,0.00
2023-02-11T13:58:36.739Z,0.25
2023-02-11T14:00:47.205Z,1.50
2023-02-11T14:03:30.254Z,1.00
2023-02-11T14:05:32.549Z,0.00
2023-02-11T14:07:34.814Z,0.00
2023-02-11T14:09:39.270Z,1.00
2023-02-11T14:11:48.007Z,0.75
2023-02-11T14:14:15.448Z,0.00
2023-02-11T14:16:35.255Z,1.00
2023-02-11T14:18:58.379Z,0.00
2023-02-11T14:21:11.542Z,0.75
2023-02-11T14:23:24.442Z,0.75
2023-02-11T14:25:27.289Z,2.00
2023-02-11T14:27:34.271Z,2.00
2023-02-11T14:29:42.285Z,1.00
2023-02-11T14:31:51.243Z,1.00
2023-02-11T14:34:04.777Z,2.00
2023-02-11T14:36:22.481Z,1.00
2023-02-11T14:38:34.174Z,1.00
2023-02-11T14:40:45.534Z,0.00
2023-02-11T14:42:47.462Z,0.00
2023-02-11T14:44:52.595Z,0.75
2023-02-11T14:46:55.347Z,1.00
2023-02-11T14:49:00.671Z,1.00
2023-02-11T14:51:08.813Z,1.00
2023-02-11T14:53:15.334Z,0.00
2023-02-11T14:55:27.911Z,1.00
2023-02-11T14:57:29.848Z,0.00
2023-02-11T14:59:31.561Z,0.00
2023-02-11T15:01:40.517Z,1.00
2023-02-11T15:03:47.873Z,1.00
2023-02-11T15:05:55.124Z,0.00
2023-02-11T15:07:59.429Z,0.00
2023-02-11T15:10:01.114Z,0.00
2023-02-11T15:12:03.342Z,1.00
2023-02-11T15:14:09.219Z,0.75
2023-02-11T15:16:10.831Z,0.75
2023-02-11T15:18:19.948Z,1.00
2023-02-11T15:20:26.165Z,2.00
2023-02-11T15:22:30.010Z,2.50
2023-02-11T15:24:33.805Z,1.00
2023-02-11T15:26:35.382Z,1.25
2023-02-11T15:28:37.225Z,1.00
2023-02-11T15:30:39.040Z,2.00
2023-02-11T15:32:44.431Z,1.00
2023-02-11T15:34:50.107Z,2.00
2023-02-11T15:36:51.921Z,1.75
2023-02-11T15:39:16.079Z,1.25
2023-02-11T15:41:35.847Z,0.25
2023-02-11T15:43:42.193Z,1.00
2023-02-11T15:45:54.188Z,1.00
2023-02-11T15:48:06.984Z,1.00
2023-02-11T15:50:20.793Z,1.25
2023-02-11T15:52:27.129Z,1.00
2023-02-11T15:54:30.210Z,0.00
2023-02-11T15:56:36.851Z,2.00
2023-02-11T15:58:40.206Z,1.50
2023-02-11T16:00:47.866Z,1.00
2023-02-11T16:02:49.684Z,0.75
2023-02-11T16:04:53.361Z,0.00
2023-02-11T16:06:56.706Z,1.25
2023-02-11T16:09:03.045Z,1.00
2023-02-11T16:11:05.614Z,1.00
2023-02-11T16:13:20.442Z,1.75
2023-02-11T16:15:43.130Z,1.00
2023-02-11T16:17:44.816Z,1.50
2023-02-11T16:19:48.920Z,5.25
2023-02-11T16:21:50.790Z,2.00
2023-02-11T16:23:56.230Z,1.00
2023-02-11T16:26:02.059Z,3.75
2023-02-11T16:28:04.041Z,3.00
2023-02-11T16:30:27.754Z,3.00
2023-02-11T16:32:30.625Z,2.75
2023-02-11T16:34:32.284Z,3.00
2023-02-11T16:36:33.856Z,6.25
2023-02-11T16:38:35.911Z,7.75
2023-02-11T16:40:38.819Z,2.75
2023-02-11T16:42:40.647Z,3.00
2023-02-11T16:44:43.471Z,4.00
2023-02-11T16:46:45.866Z,8.00
2023-02-11T16:48:47.552Z,5.25
2023-02-11T16:50:53.137Z,3.00
2023-02-11T16:52:55.078Z,6.33
2023-02-11T16:54:56.621Z,3.33
2023-02-11T16:56:59.931Z,7.25
2023-02-11T16:59:01.477Z,5.00
2023-02-11T17:01:03.445Z,2.75
2023-02-11T17:03:06.897Z,2.50
2023-02-11T17:05:17.139Z,1.50
2023-02-11T17:07:18.932Z,0.75
2023-02-11T17:09:22.492Z,1.00
2023-02-11T17:11:24.044Z,2.00
2023-02-11T17:13:27.358Z,3.00
2023-02-11T17:15:29.007Z,2.75
2023-02-11T17:17:30.737Z,2.25
2023-02-11T17:19:32.314Z,2.50
2023-02-11T17:21:33.882Z,0.00
2023-02-11T17:23:35.580Z,10.00
2023-02-11T17:25:37.749Z,3.75
2023-02-11T17:27:39.267Z,2.00
2023-02-11T17:29:42.528Z,1.75
2023-02-11T17:31:44.382Z,3.75
2023-02-11T17:33:46.516Z,1.25
2023-02-11T17:35:48.062Z,1.00
2023-02-11T17:37:50.750Z,1.00
2023-02-11T17:39:52.388Z,1.75
2023-02-11T17:41:53.898Z,1.25
2023-02-11T17:43:58.432Z,1.00
2023-02-11T17:46:01.707Z,1.00
2023-02-11T17:48:03.424Z,0.00
2023-02-11T17:50:06.126Z,1.50
2023-02-11T17:52:08.185Z,2.00
2023-02-11T17:54:12.771Z,2.00
2023-02-11T17:56:14.663Z,4.00
2023-02-11T17:58:16.217Z,3.25
2023-02-11T18:00:18.783Z,3.00
2023-02-11T18:02:21.867Z,6.75
2023-02-11T18:04:23.484Z,8.67
2023-02-11T18:06:27.286Z,6.50
2023-02-11T18:08:29.221Z,3.00
2023-02-11T18:10:30.889Z,1.25
2023-02-11T18:12:32.430Z,2.50
2023-02-11T18:14:34.446Z,2.00
2023-02-11T18:16:37.142Z,1.00
2023-02-11T18:18:40.056Z,2.00
2023-02-11T18:20:42.058Z,1.75
2023-02-11T18:22:44.030Z,2.00
2023-02-11T18:24:45.793Z,1.00
2023-02-11T18:26:47.276Z,1.00
2023-02-11T18:28:48.914Z,2.00
2023-02-11T18:30:56.971Z,3.25
2023-02-11T18:32:58.500Z,3.00
2023-02-11T18:35:01.591Z,2.00
2023-02-11T18:37:03.249Z,0.75
2023-02-11T18:39:05.305Z,13.00
2023-02-11T18:41:06.932Z,19.00
2023-02-11T18:43:08.467Z,15.33
2023-02-11T18:45:13.470Z,11.67
2023-02-11T18:47:14.969Z,6.50
2023-02-11T18:49:16.794Z,11.00
2023-02-11T18:51:19.793Z,7.25
2023-02-11T18:53:22.171Z,7.75
2023-02-11T18:55:23.830Z,6.00
2023-02-11T18:57:25.415Z,2.25
2023-02-11T18:59:26.913Z,7.67
2023-02-11T19:01:29.819Z,8.00
2023-02-11T19:03:31.697Z,10.50
2023-02-11T19:05:41.025Z,8.25
2023-02-11T19:07:44.214Z,6.00
2023-02-11T19:09:46.325Z,7.00
2023-02-11T19:11:48.106Z,3.00
2023-02-11T19:13:49.636Z,2.75
2023-02-11T19:15:51.540Z,4.00
2023-02-11T19:17:53.714Z,3.25
2023-02-11T19:19:55.282Z,3.00
2023-02-11T19:21:58.059Z,2.00
2023-02-11T19:24:01.372Z,3.00
2023-02-11T19:26:03.570Z,3.00
2023-02-11T19:28:05.471Z,2.25
2023-02-11T19:30:08.366Z,2.00
2023-02-11T19:32:11.306Z,3.00
2023-02-11T19:34:14.838Z,2.00
2023-02-11T19:36:16.412Z,2.00
2023-02-11T19:38:18.026Z,2.00
2023-02-11T19:40:21.481Z,2.75
2023-02-11T19:42:25.262Z,6.67
2023-02-11T19:44:28.285Z,3.00
2023-02-11T19:46:32.731Z,6.67
2023-02-11T19:48:34.328Z,14.33
2023-02-11T19:50:35.952Z,24.67
2023-02-11T19:52:37.622Z,6.00
2023-02-11T19:54:39.329Z,10.33
2023-02-11T19:56:42.751Z,3.00
2023-02-11T19:58:44.273Z,2.00
2023-02-11T20:00:45.834Z,10.33
2023-02-11T20:02:47.474Z,11.33
2023-02-11T20:04:49.219Z,9.00
2023-02-11T20:06:51.041Z,10.00
2023-02-11T20:08:58.567Z,16.33
2023-02-11T20:11:05.922Z,9.33
2023-02-11T20:13:09.241Z,4.00
2023-02-11T20:15:11.047Z,3.00
2023-02-11T20:17:12.923Z,3.00
2023-02-11T20:19:15.274Z,3.00
2023-02-11T20:21:19.755Z,3.00
2023-02-11T20:23:21.280Z,5.33
2023-02-11T20:25:23.067Z,8.00
2023-02-11T20:27:25.030Z,7.00
2023-02-11T20:29:27.974Z,6.00
2023-02-11T20:31:30.573Z,6.00
2023-02-11T20:33:33.100Z,8.33
2023-02-11T20:35:35.263Z,2.00
2023-02-11T20:37:36.853Z,3.00
2023-02-11T20:39:38.429Z,4.33
2023-02-11T20:41:40.145Z,3.00
2023-02-11T20:43:43.427Z,11.00
2023-02-11T20:45:47.035Z,35.25
2023-02-11T20:47:48.571Z,59.50
2023-02-11T20:49:50.378Z,26.00
2023-02-11T20:51:51.997Z,7.67
2023-02-11T20:53:54.310Z,6.67
2023-02-11T20:55:55.905Z,2.67
2023-02-11T20:57:57.464Z,3.00
2023-02-11T20:59:59.402Z,3.00
2023-02-11T21:02:02.525Z,3.00
2023-02-11T21:04:06.318Z,2.00
2023-02-11T21:06:07.950Z,2.00
2023-02-11T21:08:09.556Z,3.00
2023-02-11T21:10:12.021Z,2.00
2023-02-11T21:12:13.886Z,2.25
2023-02-11T21:14:15.938Z,3.00
2023-02-11T21:16:19.787Z,1.67
2023-02-11T21:18:23.922Z,5.00
2023-02-11T21:20:25.538Z,2.00
2023-02-11T21:22:27.364Z,2.33
2023-02-11T21:24:28.863Z,3.00
2023-02-11T21:26:30.832Z,2.00
2023-02-11T21:28:32.488Z,3.00
2023-02-11T21:30:34.139Z,2.00
2023-02-11T21:32:35.658Z,2.00
2023-02-11T21:34:38.646Z,2.25
2023-02-11T21:36:40.395Z,7.00
2023-02-11T21:38:42.250Z,1.00
2023-02-11T21:40:43.796Z,3.00
2023-02-11T21:42:47.598Z,3.00
2023-02-11T21:44:49.180Z,1.75
2023-02-11T21:46:50.894Z,4.33
2023-02-11T21:48:52.731Z,3.00
2023-02-11T21:50:55.839Z,2.00
2023-02-11T21:52:57.399Z,1.67
2023-02-11T21:54:59.234Z,2.67
2023-02-11T21:57:01.575Z,1.67
2023-02-11T21:59:03.578Z,2.00
2023-02-11T22:01:11.445Z,2.00
2023-02-11T22:03:13.020Z,1.25
2023-02-11T22:05:14.598Z,1.25
2023-02-11T22:07:17.482Z,2.25
2023-02-11T22:09:19.233Z,1.75
2023-02-11T22:11:22.701Z,1.00
2023-02-11T22:13:24.281Z,2.25
2023-02-11T22:15:26.924Z,1.00
2023-02-11T22:17:28.523Z,2.00
2023-02-11T22:19:30.874Z,1.00
2023-02-11T22:21:32.437Z,2.00
2023-02-11T22:23:36.521Z,1.67
2023-02-11T22:25:38.375Z,1.00
2023-02-11T22:27:39.902Z,0.67
2023-02-11T22:29:42.037Z,2.50
2023-02-11T22:31:43.887Z,1.00
2023-02-11T22:33:47.298Z,1.00
2023-02-11T22:35:49.370Z,1.67
2023-02-11T22:37:51.153Z,1.00
2023-02-11T22:39:54.000Z,2.00
2023-02-11T22:41:55.829Z,1.00
2023-02-11T22:43:57.409Z,0.00
2023-02-11T22:46:00.313Z,1.00
2023-02-11T22:48:02.174Z,2.33
2023-02-11T22:50:04.235Z,1.00
2023-02-11T22:52:06.092Z,1.00
2023-02-11T22:54:11.957Z,3.00
2023-02-11T22:56:15.928Z,1.00
2023-02-11T22:58:17.849Z,1.00
2023-02-11T23:00:19.805Z,1.00
2023-02-11T23:02:21.678Z,2.00
2023-02-11T23:04:24.174Z,1.33
2023-02-11T23:06:25.741Z,1.33
2023-02-11T23:08:28.390Z,1.00
2023-02-11T23:10:29.982Z,2.33
2023-02-11T23:12:32.944Z,2.00
2023-02-11T23:14:34.514Z,0.67
2023-02-11T23:16:36.174Z,2.00
2023-02-11T23:18:40.078Z,2.00
2023-02-11T23:20:43.476Z,2.00
2023-02-11T23:22:45.129Z,1.00
2023-02-11T23:24:46.782Z,2.00
2023-02-11T23:26:48.478Z,2.00
2023-02-11T23:28:52.232Z,2.00
2023-02-11T23:30:54.023Z,1.67
2023-02-11T23:32:56.158Z,1.67
2023-02-11T23:34:58.318Z,1.33
2023-02-11T23:37:00.195Z,2.00
2023-02-11T23:39:02.589Z,2.67
2023-02-11T23:41:04.446Z,2.00
2023-02-11T23:43:06.284Z,2.00
2023-02-11T23:45:11.826Z,2.67
2023-02-11T23:47:14.741Z,2.00
2023-02-11T23:49:16.252Z,2.33
2023-02-11T23:51:18.524Z,2.00
2023-02-11T23:53:20.102Z,2.00
2023-02-11T23:55:21.613Z,2.33
2023-02-11T23:57:23.988Z,2.33
2023-02-11T23:59:25.621Z,1.33
